sensor_id;sensor_type;location;lat;lon;timestamp;P1;durP1;ratioP1;P2;durP2;ratioP2
11334;SDS011;5722;42.620;23.374;2023-02-11T00:01:36;33.67;;;18.40;;
11334;SDS011;5722;42.620;23.374;2023-02-11T00:04:13;27.33;;;15.00;;
11334;SDS011;5722;42.620;23.374;2023-02-11T00:06:51;29.30;;;14.77;;
11334;SDS011;5722;42.620;23.374;2023-02-11T00:09:23;29.73;;;17.03;;
11334;SDS011;5722;42.620;23.374;2023-02-11T00:11:50;28.83;;;15.77;;
11334;SDS011;5722;42.620;23.374;2023-02-11T00:14:19;31.37;;;17.33;;
11334;SDS011;5722;42.620;23.374;2023-02-11T00:16:48;23.83;;;13.80;;
11334;SDS011;5722;42.620;23.374;2023-02-11T00:19:16;25.17;;;13.37;;
11334;SDS011;5722;42.620;23.374;2023-02-11T00:21:47;26.07;;;15.07;;
11334;SDS011;5722;42.620;23.374;2023-02-11T00:24:14;33.10;;;17.90;;
11334;SDS011;5722;42.620;23.374;2023-02-11T00:26:42;40.40;;;19.60;;
11334;SDS011;5722;42.620;23.374;2023-02-11T00:29:10;36.67;;;19.70;;
11334;SDS011;5722;42.620;23.374;2023-02-11T00:31:38;28.03;;;16.07;;
11334;SDS011;5722;42.620;23.374;2023-02-11T00:34:08;33.03;;;18.07;;
11334;SDS011;5722;42.620;23.374;2023-02-11T00:36:41;33.03;;;17.23;;
11334;SDS011;5722;42.620;23.374;2023-02-11T00:39:13;52.27;;;25.03;;
11334;SDS011;5722;42.620;23.374;2023-02-11T00:41:40;61.20;;;28.30;;
11334;SDS011;5722;42.620;23.374;2023-02-11T00:44:11;45.13;;;19.73;;
11334;SDS011;5722;42.620;23.374;2023-02-11T00:46:38;25.73;;;14.27;;
11334;SDS011;5722;42.620;23.374;2023-02-11T00:49:05;30.00;;;14.10;;
11334;SDS011;5722;42.620;23.374;2023-02-11T00:51:41;26.43;;;13.13;;
11334;SDS011;5722;42.620;23.374;2023-02-11T00:54:10;34.97;;;16.90;;
11334;SDS011;5722;42.620;23.374;2023-02-11T00:56:42;42.83;;;18.60;;
11334;SDS011;5722;42.620;23.374;2023-02-11T00:59:11;61.20;;;24.13;;
11334;SDS011;5722;42.620;23.374;2023-02-11T01:01:43;44.83;;;22.03;;
11334;SDS011;5722;42.620;23.374;2023-02-11T01:04:10;29.57;;;15.33;;
11334;SDS011;5722;42.620;23.374;2023-02-11T01:06:38;23.57;;;11.90;;
11334;SDS011;5722;42.620;23.374;2023-02-11T01:09:09;26.10;;;12.30;;
11334;SDS011;5722;42.620;23.374;2023-02-11T01:11:36;33.10;;;15.57;;
11334;SDS011;5722;42.620;23.374;2023-02-11T01:14:08;31.13;;;15.60;;
11334;SDS011;5722;42.620;23.374;2023-02-11T01:16:36;28.73;;;13.53;;
11334;SDS011;5722;42.620;23.374;2023-02-11T01:19:03;29.03;;;14.33;;
11334;SDS011;5722;42.620;23.374;2023-02-11T01:21:32;31.47;;;12.70;;
11334;SDS011;5722;42.620;23.374;2023-02-11T01:23:59;30.83;;;15.30;;
11334;SDS011;5722;42.620;23.374;2023-02-11T01:26:40;31.87;;;14.03;;
11334;SDS011;5722;42.620;23.374;2023-02-11T01:29:08;24.73;;;13.10;;
11334;SDS011;5722;42.620;23.374;2023-02-11T01:31:35;22.27;;;12.23;;
11334;SDS011;5722;42.620;23.374;2023-02-11T01:34:04;27.50;;;13.60;;
11334;SDS011;5722;42.620;23.374;2023-02-11T01:36:33;31.47;;;15.30;;
11334;SDS011;5722;42.620;23.374;2023-02-11T01:39:00;35.40;;;16.97;;
11334;SDS011;5722;42.620;23.374;2023-02-11T01:41:27;26.00;;;13.40;;
11334;SDS011;5722;42.620;23.374;2023-02-11T01:43:56;20.37;;;11.17;;
11334;SDS011;5722;42.620;23.374;2023-02-11T01:46:28;21.10;;;11.57;;
11334;SDS011;5722;42.620;23.374;2023-02-11T01:49:01;20.83;;;11.83;;
11334;SDS011;5722;42.620;23.374;2023-02-11T01:51:35;24.17;;;12.07;;
11334;SDS011;5722;42.620;23.374;2023-02-11T01:54:03;23.97;;;12.67;;
11334;SDS011;5722;42.620;23.374;2023-02-11T01:56:48;27.83;;;14.67;;
11334;SDS011;5722;42.620;23.374;2023-02-11T01:59:37;29.87;;;15.77;;
11334;SDS011;5722;42.620;23.374;2023-02-11T02:02:09;26.70;;;14.27;;
11334;SDS011;5722;42.620;23.374;2023-02-11T02:04:42;35.67;;;18.53;;
11334;SDS011;5722;42.620;23.374;2023-02-11T02:07:13;70.53;;;29.07;;
11334;SDS011;5722;42.620;23.374;2023-02-11T02:09:43;92.03;;;41.23;;
11334;SDS011;5722;42.620;23.374;2023-02-11T02:12:15;72.97;;;32.33;;
11334;SDS011;5722;42.620;23.374;2023-02-11T02:14:50;60.60;;;26.17;;
11334;SDS011;5722;42.620;23.374;2023-02-11T02:17:23;58.83;;;26.47;;
11334;SDS011;5722;42.620;23.374;2023-02-11T02:20:00;47.70;;;23.37;;
11334;SDS011;5722;42.620;23.374;2023-02-11T02:22:38;62.30;;;28.93;;
11334;SDS011;5722;42.620;23.374;2023-02-11T02:27:58;41.23;;;19.93;;
11334;SDS011;5722;42.620;23.374;2023-02-11T02:33:34;25.93;;;14.10;;
11334;SDS011;5722;42.620;23.374;2023-02-11T02:36:06;27.63;;;14.10;;
11334;SDS011;5722;42.620;23.374;2023-02-11T02:38:39;26.90;;;13.70;;
11334;SDS011;5722;42.620;23.374;2023-02-11T02:41:14;20.00;;;10.97;;
11334;SDS011;5722;42.620;23.374;2023-02-11T02:43:43;18.60;;;10.33;;
11334;SDS011;5722;42.620;23.374;2023-02-11T02:46:13;19.60;;;9.93;;
11334;SDS011;5722;42.620;23.374;2023-02-11T02:48:46;16.03;;;9.10;;
11334;SDS011;5722;42.620;23.374;2023-02-11T02:51:19;19.17;;;11.57;;
11334;SDS011;5722;42.620;23.374;2023-02-11T02:53:57;33.63;;;13.97;;
11334;SDS011;5722;42.620;23.374;2023-02-11T02:56:31;24.80;;;12.67;;
11334;SDS011;5722;42.620;23.374;2023-02-11T02:59:10;29.43;;;14.97;;
11334;SDS011;5722;42.620;23.374;2023-02-11T03:01:41;20.77;;;11.03;;
11334;SDS011;5722;42.620;23.374;2023-02-11T03:04:28;23.17;;;10.17;;
11334;SDS011;5722;42.620;23.374;2023-02-11T03:06:57;21.47;;;10.83;;
11334;SDS011;5722;42.620;23.374;2023-02-11T03:09:33;16.87;;;9.53;;
11334;SDS011;5722;42.620;23.374;2023-02-11T03:12:02;19.70;;;10.07;;
11334;SDS011;5722;42.620;23.374;2023-02-11T03:14:36;23.53;;;10.67;;
11334;SDS011;5722;42.620;23.374;2023-02-11T03:17:15;20.80;;;11.00;;
11334;SDS011;5722;42.620;23.374;2023-02-11T03:19:44;19.90;;;10.20;;
11334;SDS011;5722;42.620;23.374;2023-02-11T03:22:13;18.77;;;9.67;;
11334;SDS011;5722;42.620;23.374;2023-02-11T03:24:42;19.83;;;9.90;;
11334;SDS011;5722;42.620;23.374;2023-02-11T03:27:24;22.77;;;10.03;;
11334;SDS011;5722;42.620;23.374;2023-02-11T03:29:53;21.27;;;9.83;;
11334;SDS011;5722;42.620;23.374;2023-02-11T03:32:24;24.13;;;10.47;;
11334;SDS011;5722;42.620;23.374;2023-02-11T03:34:56;17.50;;;9.47;;
11334;SDS011;5722;42.620;23.374;2023-02-11T03:37:26;19.57;;;9.80;;
11334;SDS011;5722;42.620;23.374;2023-02-11T03:40:01;15.77;;;8.33;;
11334;SDS011;5722;42.620;23.374;2023-02-11T03:42:30;19.47;;;8.77;;
11334;SDS011;5722;42.620;23.374;2023-02-11T03:45:12;19.57;;;8.87;;
11334;SDS011;5722;42.620;23.374;2023-02-11T03:47:42;16.73;;;8.03;;
11334;SDS011;5722;42.620;23.374;2023-02-11T03:50:13;14.50;;;7.67;;
11334;SDS011;5722;42.620;23.374;2023-02-11T03:52:40;13.27;;;7.40;;
11334;SDS011;5722;42.620;23.374;2023-02-11T03:55:14;16.77;;;7.83;;
11334;SDS011;5722;42.620;23.374;2023-02-11T03:57:44;13.33;;;8.03;;
11334;SDS011;5722;42.620;23.374;2023-02-11T04:00:13;13.60;;;7.33;;
11334;SDS011;5722;42.620;23.374;2023-02-11T04:02:44;14.00;;;8.03;;
11334;SDS011;5722;42.620;23.374;2023-02-11T04:05:14;17.53;;;8.63;;
11334;SDS011;5722;42.620;23.374;2023-02-11T04:07:41;18.43;;;8.73;;
11334;SDS011;5722;42.620;23.374;2023-02-11T04:10:10;15.33;;;8.07;;
11334;SDS011;5722;42.620;23.374;2023-02-11T04:12:40;13.97;;;8.13;;
11334;SDS011;5722;42.620;23.374;2023-02-11T04:15:18;14.47;;;8.50;;
11334;SDS011;5722;42.620;23.374;2023-02-11T04:17:45;16.80;;;9.53;;
11334;SDS011;5722;42.620;23.374;2023-02-11T04:20:18;15.10;;;8.47;;
11334;SDS011;5722;42.620;23.374;2023-02-11T04:22:45;16.20;;;9.07;;
11334;SDS011;5722;42.620;23.374;2023-02-11T04:25:15;17.13;;;8.97;;
11334;SDS011;5722;42.620;23.374;2023-02-11T04:27:47;17.33;;;9.37;;
11334;SDS011;5722;42.620;23.374;2023-02-11T04:30:16;21.73;;;10.53;;
11334;SDS011;5722;42.620;23.374;2023-02-11T04:32:44;23.70;;;12.27;;
11334;SDS011;5722;42.620;23.374;2023-02-11T04:35:13;16.57;;;9.70;;
11334;SDS011;5722;42.620;23.374;2023-02-11T04:37:43;17.63;;;10.70;;
11334;SDS011;5722;42.620;23.374;2023-02-11T04:40:13;41.97;;;21.73;;
11334;SDS011;5722;42.620;23.374;2023-02-11T04:42:40;33.13;;;18.43;;
11334;SDS011;5722;42.620;23.374;2023-02-11T04:45:07;25.23;;;13.40;;
11334;SDS011;5722;42.620;23.374;2023-02-11T04:47:35;20.00;;;9.63;;
11334;SDS011;5722;42.620;23.374;2023-02-11T04:50:20;19.57;;;8.97;;
11334;SDS011;5722;42.620;23.374;2023-02-11T04:52:57;16.50;;;9.00;;
11334;SDS011;5722;42.620;23.374;2023-02-11T04:55:26;17.77;;;8.53;;
11334;SDS011;5722;42.620;23.374;2023-02-11T04:57:53;19.23;;;9.40;;
11334;SDS011;5722;42.620;23.374;2023-02-11T05:00:26;15.17;;;8.00;;
11334;SDS011;5722;42.620;23.374;2023-02-11T05:03:00;17.67;;;8.40;;
11334;SDS011;5722;42.620;23.374;2023-02-11T05:05:31;14.47;;;8.00;;
11334;SDS011;5722;42.620;23.374;2023-02-11T05:08:05;17.33;;;8.90;;
11334;SDS011;5722;42.620;23.374;2023-02-11T05:10:32;20.03;;;8.97;;
11334;SDS011;5722;42.620;23.374;2023-02-11T05:13:00;18.67;;;9.20;;
11334;SDS011;5722;42.620;23.374;2023-02-11T05:15:27;24.13;;;10.77;;
11334;SDS011;5722;42.620;23.374;2023-02-11T05:18:05;20.07;;;8.90;;
11334;SDS011;5722;42.620;23.374;2023-02-11T05:20:53;18.30;;;8.70;;
11334;SDS011;5722;42.620;23.374;2023-02-11T05:23:25;15.23;;;9.20;;
11334;SDS011;5722;42.620;23.374;2023-02-11T05:25:53;24.17;;;11.80;;
11334;SDS011;5722;42.620;23.374;2023-02-11T05:28:25;36.63;;;18.43;;
11334;SDS011;5722;42.620;23.374;2023-02-11T05:30:53;30.53;;;16.27;;
11334;SDS011;5722;42.620;23.374;2023-02-11T05:33:35;40.93;;;21.60;;
11334;SDS011;5722;42.620;23.374;2023-02-11T05:36:12;24.00;;;13.23;;
11334;SDS011;5722;42.620;23.374;2023-02-11T05:38:51;29.83;;;15.40;;
11334;SDS011;5722;42.620;23.374;2023-02-11T05:41:21;51.33;;;26.43;;
11334;SDS011;5722;42.620;23.374;2023-02-11T05:43:55;44.27;;;21.50;;
11334;SDS011;5722;42.620;23.374;2023-02-11T05:46:25;27.57;;;14.77;;
11334;SDS011;5722;42.620;23.374;2023-02-11T05:48:52;28.70;;;13.90;;
11334;SDS011;5722;42.620;23.374;2023-02-11T05:51:24;46.70;;;20.63;;
11334;SDS011;5722;42.620;23.374;2023-02-11T05:54:13;64.00;;;24.30;;
11334;SDS011;5722;42.620;23.374;2023-02-11T05:56:40;42.23;;;17.80;;
11334;SDS011;5722;42.620;23.374;2023-02-11T05:59:09;44.80;;;17.93;;
11334;SDS011;5722;42.620;23.374;2023-02-11T06:01:44;34.23;;;17.80;;
11334;SDS011;5722;42.620;23.374;2023-02-11T06:04:11;38.43;;;17.97;;
11334;SDS011;5722;42.620;23.374;2023-02-11T06:06:42;42.53;;;22.03;;
11334;SDS011;5722;42.620;23.374;2023-02-11T06:09:18;20.97;;;11.93;;
11334;SDS011;5722;42.620;23.374;2023-02-11T06:11:46;39.17;;;19.43;;
11334;SDS011;5722;42.620;23.374;2023-02-11T06:14:16;28.63;;;14.97;;
11334;SDS011;5722;42.620;23.374;2023-02-11T06:16:50;29.57;;;13.50;;
11334;SDS011;5722;42.620;23.374;2023-02-11T06:19:22;27.97;;;14.47;;
11334;SDS011;5722;42.620;23.374;2023-02-11T06:21:49;24.03;;;13.77;;
11334;SDS011;5722;42.620;23.374;2023-02-11T06:27:03;44.33;;;21.67;;
11334;SDS011;5722;42.620;23.374;2023-02-11T06:29:31;37.87;;;19.07;;
11334;SDS011;5722;42.620;23.374;2023-02-11T06:32:01;31.87;;;17.23;;
11334;SDS011;5722;42.620;23.374;2023-02-11T06:34:32;35.80;;;18.70;;
11334;SDS011;5722;42.620;23.374;2023-02-11T06:37:00;38.57;;;19.87;;
11334;SDS011;5722;42.620;23.374;2023-02-11T06:42:16;23.83;;;14.77;;
11334;SDS011;5722;42.620;23.374;2023-02-11T06:44:43;26.00;;;16.13;;
11334;SDS011;5722;42.620;23.374;2023-02-11T06:47:10;28.60;;;15.20;;
11334;SDS011;5722;42.620;23.374;2023-02-11T06:49:42;27.37;;;16.17;;
11334;SDS011;5722;42.620;23.374;2023-02-11T06:52:11;26.10;;;15.23;;
11334;SDS011;5722;42.620;23.374;2023-02-11T06:54:40;23.30;;;14.73;;
11334;SDS011;5722;42.620;23.374;2023-02-11T06:57:10;30.83;;;16.37;;
11334;SDS011;5722;42.620;23.374;2023-02-11T06:59:43;24.70;;;14.67;;
11334;SDS011;5722;42.620;23.374;2023-02-11T07:02:26;29.63;;;15.47;;
11334;SDS011;5722;42.620;23.374;2023-02-11T07:05:14;23.73;;;14.23;;
11334;SDS011;5722;42.620;23.374;2023-02-11T07:07:45;26.17;;;14.77;;
11334;SDS011;5722;42.620;23.374;2023-02-11T07:10:16;28.00;;;15.93;;
11334;SDS011;5722;42.620;23.374;2023-02-11T07:12:47;24.77;;;15.40;;
11334;SDS011;5722;42.620;23.374;2023-02-11T07:15:19;27.43;;;15.90;;
11334;SDS011;5722;42.620;23.374;2023-02-11T07:17:46;27.83;;;16.20;;
11334;SDS011;5722;42.620;23.374;2023-02-11T07:20:13;25.73;;;15.10;;
11334;SDS011;5722;42.620;23.374;2023-02-11T07:22:49;27.37;;;16.13;;
11334;SDS011;5722;42.620;23.374;2023-02-11T07:25:21;29.03;;;16.30;;
11334;SDS011;5722;42.620;23.374;2023-02-11T07:28:06;25.53;;;15.40;;
11334;SDS011;5722;42.620;23.374;2023-02-11T07:30:39;28.67;;;17.03;;
11334;SDS011;5722;42.620;23.374;2023-02-11T07:33:58;29.47;;;16.03;;
11334;SDS011;5722;42.620;23.374;2023-02-11T07:36:24;31.80;;;17.37;;
11334;SDS011;5722;42.620;23.374;2023-02-11T07:39:12;29.97;;;16.37;;
11334;SDS011;5722;42.620;23.374;2023-02-11T07:41:58;28.40;;;15.83;;
11334;SDS011;5722;42.620;23.374;2023-02-11T07:44:38;25.70;;;15.73;;
11334;SDS011;5722;42.620;23.374;2023-02-11T07:47:32;25.40;;;15.20;;
11334;SDS011;5722;42.620;23.374;2023-02-11T07:50:03;29.10;;;17.13;;
11334;SDS011;5722;42.620;23.374;2023-02-11T07:52:41;28.73;;;16.23;;
11334;SDS011;5722;42.620;23.374;2023-02-11T07:55:17;27.53;;;16.83;;
11334;SDS011;5722;42.620;23.374;2023-02-11T07:57:58;29.93;;;16.70;;
11334;SDS011;5722;42.620;23.374;2023-02-11T08:00:32;27.77;;;16.83;;
11334;SDS011;5722;42.620;23.374;2023-02-11T08:03:37;28.30;;;16.87;;
11334;SDS011;5722;42.620;23.374;2023-02-11T08:06:12;24.90;;;14.70;;
11334;SDS011;5722;42.620;23.374;2023-02-11T08:08:45;30.83;;;15.83;;
11334;SDS011;5722;42.620;23.374;2023-02-11T08:11:13;24.37;;;15.20;;
11334;SDS011;5722;42.620;23.374;2023-02-11T08:13:57;32.53;;;13.80;;
11334;SDS011;5722;42.620;23.374;2023-02-11T08:16:40;23.20;;;13.10;;
11334;SDS011;5722;42.620;23.374;2023-02-11T08:22:00;22.73;;;13.47;;
11334;SDS011;5722;42.620;23.374;2023-02-11T08:24:38;21.73;;;13.20;;
11334;SDS011;5722;42.620;23.374;2023-02-11T08:27:08;21.87;;;12.80;;
11334;SDS011;5722;42.620;23.374;2023-02-11T08:29:37;20.80;;;13.20;;
11334;SDS011;5722;42.620;23.374;2023-02-11T08:32:26;25.40;;;13.07;;
11334;SDS011;5722;42.620;23.374;2023-02-11T08:35:09;21.63;;;12.30;;
11334;SDS011;5722;42.620;23.374;2023-02-11T08:53:08;23.13;;;12.33;;
11334;SDS011;5722;42.620;23.374;2023-02-11T08:55:53;21.63;;;12.13;;
11334;SDS011;5722;42.620;23.374;2023-02-11T09:05:07;21.73;;;12.83;;
11334;SDS011;5722;42.620;23.374;2023-02-11T10:21:50;18.80;;;11.47;;
11334;SDS011;5722;42.620;23.374;2023-02-11T10:24:51;19.07;;;11.57;;
11334;SDS011;5722;42.620;23.374;2023-02-11T10:33:22;20.83;;;11.37;;
11334;SDS011;5722;42.620;23.374;2023-02-11T12:59:59;10.73;;;7.27;;
11334;SDS011;5722;42.620;23.374;2023-02-11T13:02:49;13.30;;;7.80;;
11334;SDS011;5722;42.620;23.374;2023-02-11T13:05:27;11.07;;;7.20;;
11334;SDS011;5722;42.620;23.374;2023-02-11T13:08:03;11.47;;;7.33;;
11334;SDS011;5722;42.620;23.374;2023-02-11T13:10:35;13.20;;;7.47;;
11334;SDS011;5722;42.620;23.374;2023-02-11T13:13:24;12.90;;;8.00;;
11334;SDS011;5722;42.620;23.374;2023-02-11T13:16:06;12.03;;;7.77;;
11334;SDS011;5722;42.620;23.374;2023-02-11T13:18:43;12.37;;;7.43;;
11334;SDS011;5722;42.620;23.374;2023-02-11T13:24:36;12.70;;;8.17;;
11334;SDS011;5722;42.620;23.374;2023-02-11T13:27:35;13.53;;;7.80;;
11334;SDS011;5722;42.620;23.374;2023-02-11T13:30:28;14.70;;;7.83;;
11334;SDS011;5722;42.620;23.374;2023-02-11T16:22:31;23.13;;;14.07;;
11334;SDS011;5722;42.620;23.374;2023-02-11T16:25:18;24.37;;;15.57;;
11334;SDS011;5722;42.620;23.374;2023-02-11T16:31:08;24.30;;;15.13;;
11334;SDS011;5722;42.620;23.374;2023-02-11T16:33:50;24.73;;;14.20;;
11334;SDS011;5722;42.620;23.374;2023-02-11T16:36:39;29.60;;;15.00;;
11334;SDS011;5722;42.620;23.374;2023-02-11T17:33:58;67.13;;;37.23;;
11334;SDS011;5722;42.620;23.374;2023-02-11T17:36:32;58.53;;;32.70;;
11334;SDS011;5722;42.620;23.374;2023-02-11T17:39:08;70.73;;;40.97;;
11334;SDS011;5722;42.620;23.374;2023-02-11T17:41:37;52.13;;;31.57;;
11334;SDS011;5722;42.620;23.374;2023-02-11T17:44:20;56.97;;;31.53;;
11334;SDS011;5722;42.620;23.374;2023-02-11T17:46:48;93.03;;;47.40;;
11334;SDS011;5722;42.620;23.374;2023-02-11T17:52:12;45.97;;;27.10;;
11334;SDS011;5722;42.620;23.374;2023-02-11T17:54:44;43.27;;;24.37;;
11334;SDS011;5722;42.620;23.374;2023-02-11T17:57:24;50.33;;;27.43;;
11334;SDS011;5722;42.620;23.374;2023-02-11T18:00:07;46.80;;;23.63;;
11334;SDS011;5722;42.620;23.374;2023-02-11T18:02:50;39.50;;;22.50;;
11334;SDS011;5722;42.620;23.374;2023-02-11T18:05:18;38.23;;;21.57;;
11334;SDS011;5722;42.620;23.374;2023-02-11T18:32:45;24.37;;;14.63;;
11334;SDS011;5722;42.620;23.374;2023-02-11T18:35:14;25.50;;;14.93;;
11334;SDS011;5722;42.620;23.374;2023-02-11T18:37:44;26.33;;;16.80;;
11334;SDS011;5722;42.620;23.374;2023-02-11T18:40:23;18.37;;;12.47;;
11334;SDS011;5722;42.620;23.374;2023-02-11T18:42:57;21.30;;;12.00;;
11334;SDS011;5722;42.620;23.374;2023-02-11T18:45:40;27.57;;;17.03;;
11334;SDS011;5722;42.620;23.374;2023-02-11T18:48:30;35.97;;;18.87;;
11334;SDS011;5722;42.620;23.374;2023-02-11T18:50:59;42.90;;;23.60;;
11334;SDS011;5722;42.620;23.374;2023-02-11T18:53:32;36.97;;;21.87;;
11334;SDS011;5722;42.620;23.374;2023-02-11T18:56:06;39.53;;;21.10;;
11334;SDS011;5722;42.620;23.374;2023-02-11T18:58:39;36.77;;;20.07;;
11334;SDS011;5722;42.620;23.374;2023-02-11T19:01:21;32.20;;;19.63;;
11334;SDS011;5722;42.620;23.374;2023-02-11T19:04:04;32.67;;;18.80;;
11334;SDS011;5722;42.620;23.374;2023-02-11T19:06:35;29.97;;;17.80;;
11334;SDS011;5722;42.620;23.374;2023-02-11T19:09:11;31.67;;;18.53;;
11334;SDS011;5722;42.620;23.374;2023-02-11T19:11:51;27.50;;;17.07;;
11334;SDS011;5722;42.620;23.374;2023-02-11T19:14:33;36.47;;;23.70;;
11334;SDS011;5722;42.620;23.374;2023-02-11T19:17:07;28.00;;;16.23;;
11334;SDS011;5722;42.620;23.374;2023-02-11T19:28:18;35.27;;;21.13;;
11334;SDS011;5722;42.620;23.374;2023-02-11T19:30:53;37.03;;;20.67;;
11334;SDS011;5722;42.620;23.374;2023-02-11T19:33:26;40.73;;;19.60;;
11334;SDS011;5722;42.620;23.374;2023-02-11T19:36:02;29.13;;;16.50;;
11334;SDS011;5722;42.620;23.374;2023-02-11T19:38:41;30.10;;;18.00;;
11334;SDS011;5722;42.620;23.374;2023-02-11T19:46:56;23.83;;;12.93;;
11334;SDS011;5722;42.620;23.374;2023-02-11T19:49:32;23.57;;;14.20;;
11334;SDS011;5722;42.620;23.374;2023-02-11T19:52:11;43.87;;;25.00;;
11334;SDS011;5722;42.620;23.374;2023-02-11T19:54:39;13.10;;;7.13;;
11334;SDS011;5722;42.620;23.374;2023-02-11T19:57:11;10.63;;;6.00;;
11334;SDS011;5722;42.620;23.374;2023-02-11T19:59:52;5.93;;;4.07;;
11334;SDS011;5722;42.620;23.374;2023-02-11T20:16:23;7.10;;;5.57;;
11334;SDS011;5722;42.620;23.374;2023-02-11T20:19:00;9.13;;;5.67;;
11334;SDS011;5722;42.620;23.374;2023-02-11T20:21:54;8.67;;;4.90;;
11334;SDS011;5722;42.620;23.374;2023-02-11T20:24:36;7.40;;;4.90;;
11334;SDS011;5722;42.620;23.374;2023-02-11T20:27:23;10.53;;;6.03;;
11334;SDS011;5722;42.620;23.374;2023-02-11T20:30:24;8.53;;;4.40;;
11334;SDS011;5722;42.620;23.374;2023-02-11T20:54:25;26.57;;;14.13;;
11334;SDS011;5722;42.620;23.374;2023-02-11T20:57:19;22.77;;;11.73;;
11334;SDS011;5722;42.620;23.374;2023-02-11T21:02:46;24.57;;;13.80;;
11334;SDS011;5722;42.620;23.374;2023-02-11T21:23:57;31.73;;;18.00;;
11334;SDS011;5722;42.620;23.374;2023-02-11T21:26:43;27.70;;;14.97;;
11334;SDS011;5722;42.620;23.374;2023-02-11T21:29:42;29.47;;;16.60;;
11334;SDS011;5722;42.620;23.374;2023-02-11T21:32:38;30.97;;;15.40;;
11334;SDS011;5722;42.620;23.374;2023-02-11T21:47:34;21.23;;;11.27;;
11334;SDS011;5722;42.620;23.374;2023-02-11T21:50:43;19.23;;;12.30;;
11334;SDS011;5722;42.620;23.374;2023-02-11T21:53:40;20.47;;;12.20;;
11334;SDS011;5722;42.620;23.374;2023-02-11T21:56:23;22.70;;;13.10;;
11334;SDS011;5722;42.620;23.374;2023-02-11T21:59:04;20.03;;;10.80;;
11334;SDS011;5722;42.620;23.374;2023-02-11T22:01:45;21.77;;;12.20;;
11334;SDS011;5722;42.620;23.374;2023-02-11T22:04:48;22.80;;;12.10;;
11334;SDS011;5722;42.620;23.374;2023-02-11T22:10:33;16.37;;;10.10;;
11334;SDS011;5722;42.620;23.374;2023-02-11T22:13:22;15.03;;;9.17;;
11334;SDS011;5722;42.620;23.374;2023-02-11T22:16:03;16.17;;;9.93;;
11334;SDS011;5722;42.620;23.374;2023-02-11T22:18:47;17.20;;;9.77;;
11334;SDS011;5722;42.620;23.374;2023-02-11T22:27:16;13.70;;;8.30;;
11334;SDS011;5722;42.620;23.374;2023-02-11T22:29:45;16.13;;;8.30;;
11334;SDS011;5722;42.620;23.374;2023-02-11T22:32:18;13.77;;;8.70;;
11334;SDS011;5722;42.620;23.374;2023-02-11T22:34:48;12.93;;;7.43;;
11334;SDS011;5722;42.620;23.374;2023-02-11T22:37:16;15.67;;;8.50;;
11334;SDS011;5722;42.620;23.374;2023-02-11T22:40:01;18.50;;;10.43;;
11334;SDS011;5722;42.620;23.374;2023-02-11T22:47:57;16.97;;;9.77;;
11334;SDS011;5722;42.620;23.374;2023-02-11T22:50:26;16.10;;;9.83;;
11334;SDS011;5722;42.620;23.374;2023-02-11T22:52:58;17.07;;;10.23;;
11334;SDS011;5722;42.620;23.374;2023-02-11T22:55:36;17.93;;;10.37;;
11334;SDS011;5722;42.620;23.374;2023-02-11T22:58:10;16.47;;;10.10;;
11334;SDS011;5722;42.620;23.374;2023-02-11T23:00:49;14.70;;;9.63;;
11334;SDS011;5722;42.620;23.374;2023-02-11T23:03:26;20.07;;;11.70;;
11334;SDS011;5722;42.620;23.374;2023-02-11T23:05:56;15.03;;;8.03;;
11334;SDS011;5722;42.620;23.374;2023-02-11T23:08:26;6.90;;;4.17;;
11334;SDS011;5722;42.620;23.374;2023-02-11T23:11:01;8.77;;;4.40;;
11334;SDS011;5722;42.620;23.374;2023-02-11T23:13:35;8.33;;;4.30;;
11334;SDS011;5722;42.620;23.374;2023-02-11T23:16:11;10.93;;;4.47;;
11334;SDS011;5722;42.620;23.374;2023-02-11T23:18:48;8.00;;;5.17;;
11334;SDS011;5722;42.620;23.374;2023-02-11T23:21:20;8.20;;;4.70;;
11334;SDS011;5722;42.620;23.374;2023-02-11T23:23:52;14.93;;;5.13;;
11334;SDS011;5722;42.620;23.374;2023-02-11T23:26:33;8.27;;;4.90;;
11334;SDS011;5722;42.620;23.374;2023-02-11T23:29:05;10.97;;;5.00;;
11334;SDS011;5722;42.620;23.374;2023-02-11T23:31:37;7.83;;;5.60;;
11334;SDS011;5722;42.620;23.374;2023-02-11T23:34:13;7.90;;;5.10;;
11334;SDS011;5722;42.620;23.374;2023-02-11T23:36:49;8.73;;;5.37;;
11334;SDS011;5722;42.620;23.374;2023-02-11T23:39:16;7.83;;;4.93;;
11334;SDS011;5722;42.620;23.374;2023-02-11T23:41:52;9.37;;;5.20;;
11334;SDS011;5722;42.620;23.374;2023-02-11T23:44:27;9.57;;;5.87;;
11334;SDS011;5722;42.620;23.374;2023-02-11T23:46:57;7.47;;;5.47;;
11334;SDS011;5722;42.620;23.374;2023-02-11T23:49:29;7.70;;;5.77;;
11334;SDS011;5722;42.620;23.374;2023-02-11T23:51:56;9.83;;;5.80;;
11334;SDS011;5722;42.620;23.374;2023-02-11T23:54:25;9.10;;;6.03;;
11334;SDS011;5722;42.620;23.374;2023-02-11T23:56:54;7.67;;;5.70;;
11334;SDS011;5722;42.620;23.374;2023-02-11T23:59:21;10.80;;;6.00;;
